createdAt,value
2018-06-01T00:01:12.334Z,13.40
2018-06-01T00:03:43.410Z,13.27
2018-06-01T00:06:11.713Z,12.60
2018-06-01T00:08:40.023Z,13.83
2018-06-01T00:11:08.421Z,13.50
2018-06-01T00:13:36.757Z,12.40
2018-06-01T00:16:05.818Z,13.23
2018-06-01T00:18:34.150Z,12.63
2018-06-01T00:21:04.011Z,13.33
2018-06-01T00:23:33.408Z,13.17
2018-06-01T00:26:01.709Z,15.00
2018-06-01T00:28:30.144Z,13.90
2018-06-01T00:30:58.478Z,13.90
2018-06-01T00:33:26.821Z,14.57
2018-06-01T00:35:55.162Z,14.97
2018-06-01T00:38:24.237Z,14.53
2018-06-01T00:40:52.532Z,13.70
2018-06-01T00:43:20.974Z,14.80
2018-06-01T00:45:49.359Z,13.60
2018-06-01T00:48:17.653Z,14.43
2018-06-01T00:50:46.185Z,13.97
2018-06-01T00:53:14.493Z,15.20
2018-06-01T00:55:43.026Z,14.23
2018-06-01T00:58:11.389Z,15.07
2018-06-01T01:00:39.730Z,15.30
2018-06-01T01:03:08.062Z,14.70
2018-06-01T01:05:36.392Z,15.90
2018-06-01T01:08:06.197Z,16.17
2018-06-01T01:10:36.261Z,14.93
2018-06-01T01:13:04.562Z,15.13
2018-06-01T01:15:32.888Z,16.10
2018-06-01T01:18:01.280Z,16.00
2018-06-01T01:20:30.475Z,14.13
2018-06-01T01:22:58.832Z,13.83
2018-06-01T01:25:27.148Z,14.53
2018-06-01T01:27:55.453Z,15.50
2018-06-01T01:30:23.786Z,14.40
2018-06-01T01:32:52.106Z,15.00
2018-06-01T01:35:20.458Z,16.27
2018-06-01T01:37:48.765Z,15.47
2018-06-01T01:40:17.117Z,15.97
2018-06-01T01:42:45.474Z,14.80
2018-06-01T01:45:13.858Z,15.40
2018-06-01T01:47:43.097Z,15.07
2018-06-01T01:50:12.140Z,15.27
2018-06-01T01:52:41.412Z,15.53
2018-06-01T01:55:09.757Z,14.73
2018-06-01T01:57:38.091Z,14.73
2018-06-01T02:00:06.484Z,15.10
2018-06-01T02:02:34.788Z,14.47
2018-06-01T02:05:03.241Z,15.00
2018-06-01T02:07:32.338Z,14.30
2018-06-01T02:10:00.777Z,15.97
2018-06-01T02:12:29.962Z,15.03
2018-06-01T02:14:59.365Z,15.17
2018-06-01T02:17:27.663Z,15.33
2018-06-01T02:19:55.985Z,15.10
2018-06-01T02:22:24.386Z,18.00
2018-06-01T02:24:52.894Z,16.30
2018-06-01T02:27:21.185Z,17.40
2018-06-01T02:29:49.506Z,16.43
2018-06-01T02:32:17.991Z,17.13
2018-06-01T02:34:46.382Z,16.27
2018-06-01T02:37:14.949Z,17.40
2018-06-01T02:39:44.164Z,16.80
2018-06-01T02:42:13.473Z,16.43
2018-06-01T02:44:41.965Z,18.43
2018-06-01T02:47:11.785Z,16.50
2018-06-01T02:49:40.205Z,16.20
2018-06-01T02:52:08.498Z,17.00
2018-06-01T02:54:36.946Z,16.93
2018-06-01T02:57:06.046Z,15.83
2018-06-01T02:59:35.875Z,16.40
2018-06-01T03:02:04.174Z,17.63
2018-06-01T03:04:32.506Z,16.00
2018-06-01T03:07:16.652Z,17.40
2018-06-01T03:09:45.004Z,17.70
2018-06-01T03:12:13.389Z,18.23
2018-06-01T03:14:42.529Z,17.10
2018-06-01T03:17:10.878Z,15.90
2018-06-01T03:19:39.164Z,16.70
2018-06-01T03:22:07.457Z,17.13
2018-06-01T03:24:35.786Z,17.80
2018-06-01T03:27:04.406Z,18.23
2018-06-01T03:29:32.804Z,18.13
2018-06-01T03:32:01.157Z,18.80
2018-06-01T03:34:29.565Z,19.40
2018-06-01T03:36:57.912Z,17.03
2018-06-01T03:39:26.516Z,18.77
2018-06-01T03:41:54.816Z,18.00
2018-06-01T03:44:23.109Z,21.27
2018-06-01T03:46:51.440Z,19.10
2018-06-01T03:49:19.760Z,18.80
2018-06-01T03:51:48.357Z,18.83
2018-06-01T03:54:16.705Z,18.00
2018-06-01T03:56:45.347Z,17.50
2018-06-01T03:59:13.899Z,17.60
2018-06-01T04:01:42.262Z,17.37
2018-06-01T04:04:11.386Z,19.20
2018-06-01T04:06:39.885Z,19.30
2018-06-01T04:09:08.209Z,18.30
2018-06-01T04:11:36.686Z,19.90
2018-06-01T04:14:04.977Z,17.70
2018-06-01T04:16:33.392Z,19.20
2018-06-01T04:19:02.000Z,19.57
2018-06-01T04:21:31.543Z,18.87
2018-06-01T04:23:59.950Z,18.77
2018-06-01T04:26:28.357Z,18.47
2018-06-01T04:28:56.693Z,18.07
2018-06-01T04:31:25.778Z,19.20
2018-06-01T04:33:54.169Z,17.47
2018-06-01T04:36:22.594Z,19.07
2018-06-01T04:38:50.895Z,19.40
2018-06-01T04:41:19.307Z,18.80
2018-06-01T04:43:48.226Z,18.70
2018-06-01T04:46:17.624Z,19.63
2018-06-01T04:48:47.331Z,18.20
2018-06-01T04:51:15.769Z,18.00
2018-06-01T04:53:44.198Z,18.23
2018-06-01T04:56:12.654Z,18.87
2018-06-01T04:58:41.813Z,17.60
2018-06-01T05:01:10.109Z,16.30
2018-06-01T05:03:38.437Z,18.70
2018-06-01T05:06:07.634Z,16.80
2018-06-01T05:08:36.042Z,17.83
2018-06-01T05:11:04.441Z,18.70
2018-06-01T05:13:32.844Z,17.57
2018-06-01T05:16:01.173Z,19.40
2018-06-01T05:18:29.858Z,18.63
2018-06-01T05:20:58.174Z,17.80
2018-06-01T05:23:26.469Z,17.80
2018-06-01T05:25:54.796Z,17.87
2018-06-01T05:28:23.859Z,17.50
2018-06-01T05:30:52.193Z,17.97
2018-06-01T05:33:20.598Z,16.53
2018-06-01T05:35:49.085Z,16.83
2018-06-01T05:38:17.530Z,16.93
2018-06-01T05:40:46.133Z,17.30
2018-06-01T05:43:15.022Z,17.37
2018-06-01T05:45:43.716Z,16.40
2018-06-01T05:48:12.072Z,16.63
2018-06-01T05:50:40.552Z,16.47
2018-06-01T05:53:08.940Z,15.97
2018-06-01T05:55:37.445Z,16.87
2018-06-01T05:58:05.852Z,16.47
2018-06-01T06:00:34.177Z,16.00
2018-06-01T06:03:02.465Z,17.83
2018-06-01T06:05:30.943Z,17.10
2018-06-01T06:07:59.277Z,15.80
2018-06-01T06:10:27.806Z,16.00
2018-06-01T06:12:56.903Z,15.53
2018-06-01T06:15:25.208Z,15.90
2018-06-01T06:17:53.534Z,16.20
2018-06-01T06:20:21.974Z,15.83
2018-06-01T06:22:50.340Z,16.27
2018-06-01T06:25:18.688Z,16.40
2018-06-01T06:27:47.025Z,15.80
2018-06-01T06:30:16.145Z,18.00
2018-06-01T06:32:44.502Z,17.20
2018-06-01T06:35:13.289Z,16.80
2018-06-01T06:37:42.407Z,16.20
2018-06-01T06:40:11.521Z,17.10
2018-06-01T06:42:40.634Z,16.27
2018-06-01T06:45:09.030Z,15.87
2018-06-01T06:47:37.325Z,16.50
2018-06-01T06:50:05.662Z,16.00
2018-06-01T06:52:34.756Z,16.20
2018-06-01T06:55:03.088Z,14.73
2018-06-01T06:57:32.189Z,15.30
2018-06-01T07:00:00.497Z,15.77
2018-06-01T07:02:28.853Z,15.43
2018-06-01T07:04:57.146Z,15.07
2018-06-01T07:07:25.498Z,16.07
2018-06-01T07:09:53.820Z,13.97
2018-06-01T07:12:22.907Z,16.70
2018-06-01T07:14:51.239Z,14.30
2018-06-01T07:17:20.333Z,14.47
2018-06-01T07:19:48.739Z,15.90
2018-06-01T07:22:17.049Z,15.13
2018-06-01T07:24:45.345Z,15.67
2018-06-01T07:27:13.688Z,15.80
2018-06-01T07:29:42.802Z,15.07
2018-06-01T07:32:11.900Z,15.30
2018-06-01T07:34:40.280Z,14.40
2018-06-01T07:37:08.620Z,15.33
2018-06-01T07:39:36.915Z,15.93
2018-06-01T07:42:05.210Z,14.70
2018-06-01T07:44:33.536Z,14.27
2018-06-01T07:47:02.646Z,14.07
2018-06-01T07:49:31.760Z,13.70
2018-06-01T07:52:00.126Z,12.67
2018-06-01T07:54:28.414Z,12.97
2018-06-01T07:56:56.757Z,13.70
2018-06-01T07:59:25.154Z,13.60
2018-06-01T08:01:53.457Z,11.83
2018-06-01T08:04:21.865Z,12.97
2018-06-01T08:06:50.245Z,13.03
2018-06-01T08:09:18.581Z,13.63
2018-06-01T08:11:46.972Z,12.77
2018-06-01T08:14:15.302Z,12.30
2018-06-01T08:16:43.753Z,12.77
2018-06-01T08:19:12.067Z,12.13
2018-06-01T08:21:40.401Z,11.47
2018-06-01T08:24:08.734Z,11.53
2018-06-01T08:26:37.026Z,12.07
2018-06-01T08:29:06.117Z,11.70
2018-06-01T08:31:34.414Z,13.03
2018-06-01T08:34:02.744Z,12.43
2018-06-01T08:36:31.798Z,11.83
2018-06-01T08:39:00.175Z,11.70
2018-06-01T08:41:28.529Z,14.60
2018-06-01T08:43:56.881Z,12.37
2018-06-01T08:46:26.020Z,12.53
2018-06-01T08:48:54.368Z,11.83
2018-06-01T08:51:22.756Z,12.43
2018-06-01T08:53:51.087Z,13.50
2018-06-01T08:56:19.388Z,13.17
2018-06-01T08:58:52.994Z,12.83
2018-06-01T09:01:21.309Z,11.80
2018-06-01T09:03:49.709Z,11.27
2018-06-01T09:06:18.054Z,11.57
2018-06-01T09:08:47.423Z,11.30
2018-06-01T09:11:15.854Z,11.60
2018-06-01T09:13:44.510Z,11.30
2018-06-01T09:16:12.897Z,12.33
2018-06-01T09:18:41.967Z,12.10
2018-06-01T09:21:10.525Z,13.07
2018-06-01T09:23:39.684Z,12.33
2018-06-01T09:26:07.977Z,13.33
2018-06-01T09:28:36.371Z,12.80
2018-06-01T09:31:04.705Z,12.33
2018-06-01T09:33:32.997Z,12.27
2018-06-01T09:36:01.409Z,14.83
2018-06-01T09:38:29.724Z,11.70
2018-06-01T09:40:58.335Z,12.10
2018-06-01T09:43:26.634Z,11.57
2018-06-01T09:45:54.939Z,12.83
2018-06-01T09:48:23.338Z,10.70
2018-06-01T09:50:51.624Z,9.47
2018-06-01T09:53:19.947Z,9.77
2018-06-01T09:55:48.273Z,9.27
2018-06-01T09:58:18.169Z,9.47
2018-06-01T10:00:52.199Z,10.17
2018-06-01T10:03:20.524Z,9.30
2018-06-01T10:05:48.856Z,9.83
2018-06-01T10:08:17.926Z,9.30
2018-06-01T10:10:46.233Z,9.10
2018-06-01T10:13:14.574Z,9.60
2018-06-01T10:15:42.923Z,9.70
2018-06-01T10:18:11.353Z,8.90
2018-06-01T10:20:40.476Z,12.10
2018-06-01T10:23:08.863Z,10.07
2018-06-01T10:25:37.235Z,9.10
2018-06-01T10:28:05.560Z,8.43
2018-06-01T10:30:33.871Z,8.63
2018-06-01T10:33:02.184Z,9.17
2018-06-01T10:35:30.604Z,9.70
2018-06-01T10:37:58.998Z,9.40
2018-06-01T10:40:27.326Z,10.33
2018-06-01T10:42:56.402Z,10.53
2018-06-01T10:45:24.725Z,10.00
2018-06-01T10:47:53.070Z,10.07
2018-06-01T10:50:21.436Z,10.10
2018-06-01T10:52:49.836Z,9.47
2018-06-01T10:55:18.126Z,9.30
2018-06-01T10:57:46.417Z,8.70
2018-06-01T11:00:14.774Z,9.60
2018-06-01T11:02:43.866Z,7.90
2018-06-01T11:05:12.250Z,6.77
2018-06-01T11:07:40.540Z,6.23
2018-06-01T11:10:08.997Z,5.67
2018-06-01T11:12:38.093Z,5.63
2018-06-01T11:15:06.489Z,5.73
2018-06-01T11:17:34.986Z,6.57
2018-06-01T11:20:03.272Z,5.90
2018-06-01T11:22:31.602Z,5.27
2018-06-01T11:25:00.013Z,5.20
2018-06-01T11:27:28.410Z,4.80
2018-06-01T11:29:56.698Z,6.33
2018-06-01T11:32:25.104Z,6.40
2018-06-01T11:34:53.389Z,5.30
2018-06-01T11:37:21.709Z,6.83
2018-06-01T11:39:50.130Z,6.23
2018-06-01T11:42:18.429Z,6.87
2018-06-01T11:44:46.717Z,6.90
2018-06-01T11:47:15.174Z,5.60
2018-06-01T11:49:43.520Z,6.57
2018-06-01T11:52:11.885Z,6.47
2018-06-01T11:54:40.948Z,7.07
2018-06-01T11:57:09.357Z,7.63
2018-06-01T11:59:37.657Z,5.57
2018-06-01T12:02:05.937Z,7.33
2018-06-01T12:04:34.369Z,6.00
2018-06-01T12:07:02.884Z,6.53
2018-06-01T12:09:31.173Z,6.67
2018-06-01T12:11:59.471Z,6.87
2018-06-01T12:14:27.793Z,8.77
2018-06-01T12:16:56.085Z,9.50
2018-06-01T12:19:24.379Z,7.50
2018-06-01T12:21:52.728Z,7.50
2018-06-01T12:24:21.780Z,7.63
2018-06-01T12:26:50.211Z,6.97
2018-06-01T12:29:18.602Z,6.33
2018-06-01T12:31:47.602Z,7.20
2018-06-01T12:34:16.029Z,6.97
2018-06-01T12:36:44.357Z,6.70
2018-06-01T12:39:12.995Z,6.70
2018-06-01T12:41:42.174Z,8.50
2018-06-01T12:44:11.401Z,6.70
2018-06-01T12:46:39.745Z,6.40
2018-06-01T12:49:08.845Z,7.70
2018-06-01T12:51:37.138Z,7.90
2018-06-01T12:54:05.445Z,7.97
2018-06-01T12:56:34.557Z,8.10
2018-06-01T12:59:02.949Z,8.63
2018-06-01T13:01:31.354Z,8.10
2018-06-01T13:03:59.638Z,8.90
2018-06-01T13:06:28.048Z,10.20
2018-06-01T13:08:56.360Z,9.27
2018-06-01T13:11:24.756Z,9.20
2018-06-01T13:13:53.072Z,9.33
2018-06-01T13:16:21.375Z,9.23
2018-06-01T13:18:50.017Z,9.10
2018-06-01T13:21:19.195Z,10.10
2018-06-01T13:23:47.568Z,9.50
2018-06-01T13:26:17.107Z,10.00
2018-06-01T13:28:45.438Z,8.90
2018-06-01T13:31:14.062Z,9.87
2018-06-01T13:33:43.352Z,9.23
2018-06-01T13:36:11.708Z,9.50
2018-06-01T13:38:40.800Z,10.30
2018-06-01T13:41:09.589Z,8.60
2018-06-01T13:43:37.874Z,9.60
2018-06-01T13:46:06.503Z,9.10
2018-06-01T13:48:35.864Z,9.10
2018-06-01T13:51:04.248Z,9.50
2018-06-01T13:53:32.569Z,8.27
2018-06-01T13:56:00.864Z,7.40
2018-06-01T13:58:29.204Z,8.53
2018-06-01T14:00:58.266Z,7.87
2018-06-01T14:03:26.604Z,7.80
2018-06-01T14:05:54.962Z,7.70
2018-06-01T14:08:23.274Z,8.60
2018-06-01T14:10:51.566Z,8.60
2018-06-01T14:13:19.989Z,7.87
2018-06-01T14:15:48.309Z,8.37
2018-06-01T14:18:16.644Z,8.83
2018-06-01T14:20:45.345Z,8.00
2018-06-01T14:23:13.648Z,9.07
2018-06-01T14:25:42.920Z,8.60
2018-06-01T14:28:11.242Z,7.83
2018-06-01T14:30:39.629Z,8.63
2018-06-01T14:33:08.246Z,9.07
2018-06-01T14:35:36.524Z,8.20
2018-06-01T14:38:04.849Z,8.00
2018-06-01T14:40:33.216Z,8.40
2018-06-01T14:43:01.519Z,8.40
2018-06-01T14:45:29.857Z,8.00
2018-06-01T14:47:58.172Z,8.50
2018-06-01T14:50:26.524Z,8.97
2018-06-01T14:52:54.821Z,8.40
2018-06-01T14:55:23.154Z,9.07
2018-06-01T14:57:51.660Z,9.60
2018-06-01T15:00:20.191Z,8.50
2018-06-01T15:02:48.502Z,8.60
2018-06-01T15:05:16.841Z,9.80
2018-06-01T15:07:45.322Z,6.80
2018-06-01T15:10:13.799Z,7.40
2018-06-01T15:12:42.118Z,6.67
2018-06-01T15:15:10.497Z,7.20
2018-06-01T15:17:38.776Z,8.07
2018-06-01T15:20:07.102Z,8.60
2018-06-01T15:22:35.391Z,7.90
2018-06-01T15:25:03.739Z,7.70
2018-06-01T15:27:32.201Z,8.50
2018-06-01T15:30:00.701Z,8.33
2018-06-01T15:32:29.820Z,9.30
2018-06-01T15:34:58.151Z,8.00
2018-06-01T15:37:26.543Z,7.80
2018-06-01T15:39:54.864Z,8.33
2018-06-01T15:42:23.150Z,7.87
2018-06-01T15:44:51.438Z,9.00
2018-06-01T15:47:19.757Z,9.10
2018-06-01T15:49:48.054Z,8.70
2018-06-01T15:52:16.473Z,7.50
2018-06-01T15:54:44.771Z,8.20
2018-06-01T15:57:13.053Z,8.03
2018-06-01T15:59:43.193Z,7.83
2018-06-01T16:02:11.750Z,10.10
2018-06-01T16:04:40.411Z,9.80
2018-06-01T16:07:09.072Z,9.90
2018-06-01T16:09:37.937Z,8.63
2018-06-01T16:12:06.335Z,10.83
2018-06-01T16:14:34.623Z,9.10
2018-06-01T16:17:02.947Z,8.13
2018-06-01T16:19:31.223Z,8.00
2018-06-01T16:21:59.581Z,7.17
2018-06-01T16:24:27.910Z,7.23
2018-06-01T16:26:56.989Z,7.07
2018-06-01T16:29:25.340Z,6.47
2018-06-01T16:31:58.592Z,6.27
2018-06-01T16:34:27.626Z,7.83
2018-06-01T16:36:55.949Z,6.43
2018-06-01T16:39:25.154Z,7.23
2018-06-01T16:41:53.457Z,7.33
2018-06-01T16:44:21.857Z,6.10
2018-06-01T16:46:50.149Z,7.27
2018-06-01T16:49:18.437Z,8.17
2018-06-01T16:51:46.768Z,7.37
2018-06-01T16:54:15.066Z,7.00
2018-06-01T16:56:43.766Z,7.53
2018-06-01T16:59:12.056Z,7.20
2018-06-01T17:01:40.398Z,6.53
2018-06-01T17:04:08.686Z,6.57
2018-06-01T17:06:36.978Z,6.20
2018-06-01T17:09:06.199Z,9.53
2018-06-01T17:11:34.598Z,9.23
2018-06-01T17:14:02.899Z,10.40
2018-06-01T17:16:31.266Z,13.07
2018-06-01T17:18:59.621Z,12.07
2018-06-01T17:21:27.953Z,14.90
2018-06-01T17:23:57.020Z,16.90
2018-06-01T17:26:25.337Z,15.10
2018-06-01T17:28:53.740Z,16.87
2018-06-01T17:31:22.072Z,17.23
2018-06-01T17:33:50.449Z,19.00
2018-06-01T17:36:18.746Z,19.23
2018-06-01T17:38:47.094Z,17.40
2018-06-01T17:41:16.178Z,19.37
2018-06-01T17:43:44.590Z,18.00
2018-06-01T17:46:12.914Z,16.83
2018-06-01T17:48:41.981Z,17.07
2018-06-01T17:51:10.358Z,17.27
2018-06-01T17:53:38.713Z,17.27
2018-06-01T17:56:07.039Z,16.87
2018-06-01T17:58:36.096Z,16.00
2018-06-01T18:01:04.393Z,15.47
2018-06-01T18:03:32.741Z,16.80
2018-06-01T18:06:01.058Z,17.13
2018-06-01T18:08:29.389Z,15.73
2018-06-01T18:10:58.478Z,17.20
2018-06-01T18:13:26.768Z,16.50
2018-06-01T18:15:55.367Z,14.73
2018-06-01T18:18:23.651Z,14.10
2018-06-01T18:20:51.982Z,13.03
2018-06-01T18:23:20.597Z,10.30
2018-06-01T18:25:48.885Z,9.93
2018-06-01T18:28:17.193Z,9.90
2018-06-01T18:30:45.601Z,10.27
2018-06-01T18:33:13.909Z,8.70
2018-06-01T18:35:42.299Z,9.93
2018-06-01T18:38:10.623Z,9.37
2018-06-01T18:40:38.940Z,7.50
2018-06-01T18:43:08.034Z,7.37
2018-06-01T18:45:36.329Z,6.60
2018-06-01T18:48:04.617Z,7.63
2018-06-01T18:50:33.132Z,8.20
2018-06-01T18:53:01.499Z,7.90
2018-06-01T18:55:29.818Z,6.93
2018-06-01T18:57:58.289Z,7.90
2018-06-01T19:00:27.333Z,7.50
2018-06-01T19:02:55.618Z,8.03
2018-06-01T19:05:24.691Z,7.90
2018-06-01T19:07:53.093Z,9.80
2018-06-01T19:10:21.410Z,8.23
2018-06-01T19:12:49.735Z,8.97
2018-06-01T19:15:18.789Z,9.90
2018-06-01T19:17:47.418Z,10.80
2018-06-01T19:20:15.777Z,10.70
2018-06-01T19:22:44.940Z,10.90
2018-06-01T19:25:13.558Z,10.70
2018-06-01T19:27:42.057Z,12.20
2018-06-01T19:30:11.166Z,12.30
2018-06-01T19:32:39.491Z,12.50
2018-06-01T19:35:07.816Z,12.63
2018-06-01T19:37:36.151Z,13.20
2018-06-01T19:40:04.460Z,12.77
2018-06-01T19:42:32.797Z,13.97
2018-06-01T19:45:01.271Z,14.97
2018-06-01T19:47:29.657Z,13.53
2018-06-01T19:49:58.761Z,14.50
2018-06-01T19:52:27.970Z,13.23
2018-06-01T19:54:57.055Z,13.40
2018-06-01T19:57:25.386Z,15.13
2018-06-01T19:59:53.900Z,13.50
2018-06-01T20:02:22.289Z,12.43
2018-06-01T20:04:50.591Z,12.80
2018-06-01T20:07:18.994Z,12.87
2018-06-01T20:09:47.434Z,14.97
2018-06-01T20:12:16.566Z,15.17
2018-06-01T20:14:44.914Z,15.63
2018-06-01T20:17:14.166Z,14.90
2018-06-01T20:19:42.574Z,15.80
2018-06-01T20:22:11.698Z,15.63
2018-06-01T20:24:40.041Z,15.90
2018-06-01T20:27:08.376Z,16.20
2018-06-01T20:29:36.696Z,15.73
2018-06-01T20:32:05.776Z,17.33
2018-06-01T20:34:34.120Z,16.93
2018-06-01T20:37:03.973Z,18.23
2018-06-01T20:39:33.128Z,18.27
2018-06-01T20:42:01.652Z,18.20
2018-06-01T20:44:29.968Z,20.17
2018-06-01T20:46:58.297Z,17.93
2018-06-01T20:49:27.370Z,19.20
2018-06-01T20:51:55.684Z,18.23
2018-06-01T20:54:24.028Z,17.97
2018-06-01T20:56:53.299Z,19.10
2018-06-01T20:59:21.625Z,19.60
2018-06-01T21:01:49.918Z,19.50
2018-06-01T21:04:18.232Z,18.07
2018-06-01T21:06:46.659Z,18.73
2018-06-01T21:09:15.769Z,19.63
2018-06-01T21:11:45.061Z,20.37
2018-06-01T21:14:13.440Z,19.93
2018-06-01T21:16:42.232Z,21.00
2018-06-01T21:19:11.318Z,20.10
2018-06-01T21:21:39.630Z,21.37
2018-06-01T21:24:08.222Z,21.00
2018-06-01T21:26:36.526Z,22.00
2018-06-01T21:29:04.915Z,20.70
2018-06-01T21:31:33.341Z,20.90
2018-06-01T21:34:01.648Z,20.60
2018-06-01T21:36:30.045Z,20.23
2018-06-01T21:38:58.466Z,21.00
2018-06-01T21:41:26.789Z,20.90
2018-06-01T21:43:55.969Z,22.93
2018-06-01T21:46:24.297Z,22.33
2018-06-01T21:48:52.677Z,23.03
2018-06-01T21:51:21.066Z,22.10
2018-06-01T21:53:49.589Z,22.20
2018-06-01T21:56:17.890Z,24.50
2018-06-01T21:58:46.216Z,25.13
2018-06-01T22:01:15.588Z,23.63
2018-06-01T22:03:44.706Z,23.00
2018-06-01T22:06:14.006Z,24.50
2018-06-01T22:08:42.461Z,24.60
2018-06-01T22:11:10.854Z,28.40
2018-06-01T22:13:39.261Z,25.70
2018-06-01T22:16:07.552Z,26.87
2018-06-01T22:18:36.286Z,31.13
2018-06-01T22:21:04.573Z,28.20
2018-06-01T22:23:32.898Z,28.27
2018-06-01T22:26:01.220Z,27.47
2018-06-01T22:28:29.557Z,27.50
2018-06-01T22:30:57.921Z,27.93
2018-06-01T22:33:27.749Z,26.93
2018-06-01T22:35:56.049Z,28.73
2018-06-01T22:38:24.373Z,29.37
2018-06-01T22:40:52.669Z,26.47
2018-06-01T22:43:21.059Z,27.00
2018-06-01T22:45:49.376Z,29.87
2018-06-01T22:48:17.974Z,29.73
2018-06-01T22:50:46.285Z,27.60
2018-06-01T22:53:14.779Z,28.03
2018-06-01T22:55:43.966Z,27.10
2018-06-01T22:58:12.409Z,27.67
2018-06-01T23:00:41.641Z,27.30
2018-06-01T23:03:09.746Z,26.20
2018-06-01T23:05:39.133Z,27.67
2018-06-01T23:08:07.449Z,25.40
2018-06-01T23:10:36.781Z,25.30
2018-06-01T23:13:05.110Z,26.60
2018-06-01T23:15:33.519Z,27.27
2018-06-01T23:18:02.581Z,26.60
2018-06-01T23:20:30.945Z,25.43
2018-06-01T23:23:01.153Z,26.63
2018-06-01T23:25:30.352Z,27.10
2018-06-01T23:27:58.642Z,26.20
2018-06-01T23:30:26.978Z,25.30
2018-06-01T23:32:55.597Z,26.20
2018-06-01T23:35:23.933Z,27.30
2018-06-01T23:37:53.004Z,25.57
2018-06-01T23:40:21.309Z,27.10
2018-06-01T23:42:49.633Z,25.97
2018-06-01T23:45:17.968Z,28.07
2018-06-01T23:47:47.097Z,27.83
2018-06-01T23:50:15.453Z,25.27
2018-06-01T23:52:43.832Z,24.87
2018-06-01T23:55:12.157Z,24.60
2018-06-01T23:57:40.497Z,25.10
